sensor_id;sensor_type;location;lat;lon;timestamp;temperature;humidity
66608;DHT22;53462;39.616;8.824;2023-05-10T00:00:27;17.50;99.90
66608;DHT22;53462;39.616;8.824;2023-05-10T00:02:53;17.50;99.90
66608;DHT22;53462;39.616;8.824;2023-05-10T00:05:19;17.50;99.90
66608;DHT22;53462;39.616;8.824;2023-05-10T00:07:44;17.40;99.90
66608;DHT22;53462;39.616;8.824;2023-05-10T00:10:11;17.40;99.90
66608;DHT22;53462;39.616;8.824;2023-05-10T00:12:37;17.40;99.90
66608;DHT22;53462;39.616;8.824;2023-05-10T00:15:03;17.40;99.90
66608;DHT22;53462;39.616;8.824;2023-05-10T00:17:29;17.40;99.90
66608;DHT22;53462;39.616;8.824;2023-05-10T00:19:55;17.40;99.90
66608;DHT22;53462;39.616;8.824;2023-05-10T00:22:21;17.40;99.90
66608;DHT22;53462;39.616;8.824;2023-05-10T00:24:47;17.40;99.90
66608;DHT22;53462;39.616;8.824;2023-05-10T00:27:13;17.40;99.90
66608;DHT22;53462;39.616;8.824;2023-05-10T00:29:39;17.40;99.90
66608;DHT22;53462;39.616;8.824;2023-05-10T00:32:05;17.40;99.90
66608;DHT22;53462;39.616;8.824;2023-05-10T00:34:31;17.40;99.90
66608;DHT22;53462;39.616;8.824;2023-05-10T00:36:57;17.40;99.90
66608;DHT22;53462;39.616;8.824;2023-05-10T00:39:23;17.40;99.90
66608;DHT22;53462;39.616;8.824;2023-05-10T00:41:49;17.40;99.90
66608;DHT22;53462;39.616;8.824;2023-05-10T00:44:16;17.50;99.90
66608;DHT22;53462;39.616;8.824;2023-05-10T00:46:43;17.40;99.90
66608;DHT22;53462;39.616;8.824;2023-05-10T00:49:10;17.40;99.90
66608;DHT22;53462;39.616;8.824;2023-05-10T00:51:36;17.40;99.90
66608;DHT22;53462;39.616;8.824;2023-05-10T00:54:02;17.50;99.90
66608;DHT22;53462;39.616;8.824;2023-05-10T00:56:28;17.40;99.90
66608;DHT22;53462;39.616;8.824;2023-05-10T00:58:56;17.40;99.90
66608;DHT22;53462;39.616;8.824;2023-05-10T01:01:22;17.40;99.90
66608;DHT22;53462;39.616;8.824;2023-05-10T01:03:48;17.40;99.90
66608;DHT22;53462;39.616;8.824;2023-05-10T01:06:15;17.40;99.90
66608;DHT22;53462;39.616;8.824;2023-05-10T01:08:41;17.40;99.90
66608;DHT22;53462;39.616;8.824;2023-05-10T01:11:07;17.40;99.90
66608;DHT22;53462;39.616;8.824;2023-05-10T01:13:38;17.30;99.90
66608;DHT22;53462;39.616;8.824;2023-05-10T01:16:05;17.30;99.90
66608;DHT22;53462;39.616;8.824;2023-05-10T01:18:38;17.30;99.90
66608;DHT22;53462;39.616;8.824;2023-05-10T01:24:31;17.20;99.90
66608;DHT22;53462;39.616;8.824;2023-05-10T01:29:49;17.20;99.90
66608;DHT22;53462;39.616;8.824;2023-05-10T01:36:19;17.10;99.90
66608;DHT22;53462;39.616;8.824;2023-05-10T01:41:12;17.10;99.90
66608;DHT22;53462;39.616;8.824;2023-05-10T01:46:35;17.10;99.90
66608;DHT22;53462;39.616;8.824;2023-05-10T01:49:11;17.00;99.90
66608;DHT22;53462;39.616;8.824;2023-05-10T01:51:50;17.00;99.90
66608;DHT22;53462;39.616;8.824;2023-05-10T01:54:20;16.90;99.90
66608;DHT22;53462;39.616;8.824;2023-05-10T01:56:50;16.90;99.90
66608;DHT22;53462;39.616;8.824;2023-05-10T01:59:19;16.90;99.90
66608;DHT22;53462;39.616;8.824;2023-05-10T02:01:47;16.90;99.90
66608;DHT22;53462;39.616;8.824;2023-05-10T02:04:17;16.70;99.90
66608;DHT22;53462;39.616;8.824;2023-05-10T02:06:45;16.80;99.90
66608;DHT22;53462;39.616;8.824;2023-05-10T02:09:14;16.90;99.90
66608;DHT22;53462;39.616;8.824;2023-05-10T02:11:43;16.90;99.90
66608;DHT22;53462;39.616;8.824;2023-05-10T02:14:10;16.90;99.90
66608;DHT22;53462;39.616;8.824;2023-05-10T02:16:38;17.00;99.90
66608;DHT22;53462;39.616;8.824;2023-05-10T02:19:05;16.90;99.90
66608;DHT22;53462;39.616;8.824;2023-05-10T02:21:32;16.90;99.90
66608;DHT22;53462;39.616;8.824;2023-05-10T02:24:00;16.90;99.90
66608;DHT22;53462;39.616;8.824;2023-05-10T02:26:29;17.00;99.90
66608;DHT22;53462;39.616;8.824;2023-05-10T02:28:57;17.00;99.90
66608;DHT22;53462;39.616;8.824;2023-05-10T02:31:24;16.90;99.90
66608;DHT22;53462;39.616;8.824;2023-05-10T02:33:51;16.90;99.90
66608;DHT22;53462;39.616;8.824;2023-05-10T02:36:19;16.80;99.90
66608;DHT22;53462;39.616;8.824;2023-05-10T02:38:47;16.80;99.90
66608;DHT22;53462;39.616;8.824;2023-05-10T02:41:16;16.80;99.90
66608;DHT22;53462;39.616;8.824;2023-05-10T02:43:43;16.80;99.90
66608;DHT22;53462;39.616;8.824;2023-05-10T02:46:09;16.70;99.90
66608;DHT22;53462;39.616;8.824;2023-05-10T02:48:35;16.80;99.90
66608;DHT22;53462;39.616;8.824;2023-05-10T02:51:05;16.80;99.90
66608;DHT22;53462;39.616;8.824;2023-05-10T02:53:35;16.70;99.90
66608;DHT22;53462;39.616;8.824;2023-05-10T02:56:07;16.70;99.90
66608;DHT22;53462;39.616;8.824;2023-05-10T02:58:37;16.70;99.90
66608;DHT22;53462;39.616;8.824;2023-05-10T03:01:03;16.80;99.90
66608;DHT22;53462;39.616;8.824;2023-05-10T03:03:29;16.80;99.90
66608;DHT22;53462;39.616;8.824;2023-05-10T03:05:55;16.70;99.90
66608;DHT22;53462;39.616;8.824;2023-05-10T03:08:23;16.70;99.90
66608;DHT22;53462;39.616;8.824;2023-05-10T03:11:20;16.70;99.90
66608;DHT22;53462;39.616;8.824;2023-05-10T03:14:12;16.70;99.90
66608;DHT22;53462;39.616;8.824;2023-05-10T03:16:47;16.70;99.90
66608;DHT22;53462;39.616;8.824;2023-05-10T03:19:26;16.70;99.90
66608;DHT22;53462;39.616;8.824;2023-05-10T03:21:53;16.60;99.90
66608;DHT22;53462;39.616;8.824;2023-05-10T03:24:23;16.60;99.90
66608;DHT22;53462;39.616;8.824;2023-05-10T03:26:54;16.60;99.90
66608;DHT22;53462;39.616;8.824;2023-05-10T03:29:23;16.60;99.90
66608;DHT22;53462;39.616;8.824;2023-05-10T03:31:51;16.60;99.90
66608;DHT22;53462;39.616;8.824;2023-05-10T03:34:23;16.60;99.90
66608;DHT22;53462;39.616;8.824;2023-05-10T03:36:50;16.60;99.90
66608;DHT22;53462;39.616;8.824;2023-05-10T03:39:16;16.70;99.90
66608;DHT22;53462;39.616;8.824;2023-05-10T03:41:47;16.70;99.90
66608;DHT22;53462;39.616;8.824;2023-05-10T03:44:13;16.70;99.90
66608;DHT22;53462;39.616;8.824;2023-05-10T03:46:39;16.70;99.90
66608;DHT22;53462;39.616;8.824;2023-05-10T03:49:05;16.70;99.90
66608;DHT22;53462;39.616;8.824;2023-05-10T03:51:31;16.70;99.90
66608;DHT22;53462;39.616;8.824;2023-05-10T03:53:58;16.70;99.90
66608;DHT22;53462;39.616;8.824;2023-05-10T03:56:24;16.60;99.90
66608;DHT22;53462;39.616;8.824;2023-05-10T03:58:50;16.60;99.90
66608;DHT22;53462;39.616;8.824;2023-05-10T04:01:17;16.50;99.90
66608;DHT22;53462;39.616;8.824;2023-05-10T04:03:42;16.40;99.90
66608;DHT22;53462;39.616;8.824;2023-05-10T04:06:08;16.30;99.90
66608;DHT22;53462;39.616;8.824;2023-05-10T04:08:37;16.30;99.90
66608;DHT22;53462;39.616;8.824;2023-05-10T04:11:10;16.30;99.90
66608;DHT22;53462;39.616;8.824;2023-05-10T04:13:38;16.30;99.90
66608;DHT22;53462;39.616;8.824;2023-05-10T04:16:04;16.30;99.90
66608;DHT22;53462;39.616;8.824;2023-05-10T04:18:30;16.30;99.90
66608;DHT22;53462;39.616;8.824;2023-05-10T04:20:57;16.30;99.90
66608;DHT22;53462;39.616;8.824;2023-05-10T04:23:23;16.30;99.90
66608;DHT22;53462;39.616;8.824;2023-05-10T04:25:49;16.40;99.90
66608;DHT22;53462;39.616;8.824;2023-05-10T04:28:15;16.40;99.90
66608;DHT22;53462;39.616;8.824;2023-05-10T04:30:41;16.40;99.90
66608;DHT22;53462;39.616;8.824;2023-05-10T04:33:06;16.40;99.90
66608;DHT22;53462;39.616;8.824;2023-05-10T04:35:32;16.40;99.90
66608;DHT22;53462;39.616;8.824;2023-05-10T04:37:59;16.30;99.90
66608;DHT22;53462;39.616;8.824;2023-05-10T04:40:26;16.30;99.90
66608;DHT22;53462;39.616;8.824;2023-05-10T04:42:51;16.20;99.90
66608;DHT22;53462;39.616;8.824;2023-05-10T04:45:17;16.20;99.90
66608;DHT22;53462;39.616;8.824;2023-05-10T04:47:43;16.10;99.90
66608;DHT22;53462;39.616;8.824;2023-05-10T04:50:09;16.10;99.90
66608;DHT22;53462;39.616;8.824;2023-05-10T04:52:35;16.10;99.90
66608;DHT22;53462;39.616;8.824;2023-05-10T04:55:02;16.20;99.90
66608;DHT22;53462;39.616;8.824;2023-05-10T04:57:28;16.20;99.90
66608;DHT22;53462;39.616;8.824;2023-05-10T04:59:53;16.20;99.90
66608;DHT22;53462;39.616;8.824;2023-05-10T05:02:19;16.20;99.90
66608;DHT22;53462;39.616;8.824;2023-05-10T05:04:45;16.20;99.90
66608;DHT22;53462;39.616;8.824;2023-05-10T05:07:11;16.20;99.90
66608;DHT22;53462;39.616;8.824;2023-05-10T05:09:37;16.30;99.90
66608;DHT22;53462;39.616;8.824;2023-05-10T05:12:03;16.30;99.90
66608;DHT22;53462;39.616;8.824;2023-05-10T05:14:29;16.30;99.90
66608;DHT22;53462;39.616;8.824;2023-05-10T05:16:55;16.40;99.90
66608;DHT22;53462;39.616;8.824;2023-05-10T05:19:22;16.40;99.90
66608;DHT22;53462;39.616;8.824;2023-05-10T05:21:48;16.50;99.90
66608;DHT22;53462;39.616;8.824;2023-05-10T05:24:14;16.40;99.90
66608;DHT22;53462;39.616;8.824;2023-05-10T05:26:40;16.40;99.90
66608;DHT22;53462;39.616;8.824;2023-05-10T05:29:06;16.50;99.90
66608;DHT22;53462;39.616;8.824;2023-05-10T05:31:32;16.60;99.90
66608;DHT22;53462;39.616;8.824;2023-05-10T05:33:58;16.60;99.90
66608;DHT22;53462;39.616;8.824;2023-05-10T05:36:23;16.60;99.90
66608;DHT22;53462;39.616;8.824;2023-05-10T05:38:50;16.60;99.90
66608;DHT22;53462;39.616;8.824;2023-05-10T05:41:15;16.60;99.90
66608;DHT22;53462;39.616;8.824;2023-05-10T05:43:41;16.60;99.90
66608;DHT22;53462;39.616;8.824;2023-05-10T05:46:07;16.70;99.90
66608;DHT22;53462;39.616;8.824;2023-05-10T05:48:33;16.70;99.90
66608;DHT22;53462;39.616;8.824;2023-05-10T05:50:59;16.70;99.90
66608;DHT22;53462;39.616;8.824;2023-05-10T05:53:25;16.80;99.90
66608;DHT22;53462;39.616;8.824;2023-05-10T05:55:52;16.90;99.90
66608;DHT22;53462;39.616;8.824;2023-05-10T05:58:20;17.10;99.90
66608;DHT22;53462;39.616;8.824;2023-05-10T06:00:46;17.30;99.90
66608;DHT22;53462;39.616;8.824;2023-05-10T06:03:12;17.70;99.90
66608;DHT22;53462;39.616;8.824;2023-05-10T06:05:38;18.20;99.90
66608;DHT22;53462;39.616;8.824;2023-05-10T06:08:04;18.60;99.90
66608;DHT22;53462;39.616;8.824;2023-05-10T06:10:30;18.50;99.90
66608;DHT22;53462;39.616;8.824;2023-05-10T06:12:56;18.40;99.90
66608;DHT22;53462;39.616;8.824;2023-05-10T06:15:22;18.20;99.90
66608;DHT22;53462;39.616;8.824;2023-05-10T06:17:48;18.00;99.90
66608;DHT22;53462;39.616;8.824;2023-05-10T06:20:15;17.90;99.90
66608;DHT22;53462;39.616;8.824;2023-05-10T06:22:41;17.80;99.90
66608;DHT22;53462;39.616;8.824;2023-05-10T06:25:08;17.70;99.90
66608;DHT22;53462;39.616;8.824;2023-05-10T06:27:34;17.70;99.90
66608;DHT22;53462;39.616;8.824;2023-05-10T06:30:00;17.70;99.90
66608;DHT22;53462;39.616;8.824;2023-05-10T06:32:26;17.70;99.90
66608;DHT22;53462;39.616;8.824;2023-05-10T06:34:52;17.60;99.90
66608;DHT22;53462;39.616;8.824;2023-05-10T06:37:17;17.70;99.90
66608;DHT22;53462;39.616;8.824;2023-05-10T06:39:43;17.70;99.90
66608;DHT22;53462;39.616;8.824;2023-05-10T06:42:10;17.80;99.90
66608;DHT22;53462;39.616;8.824;2023-05-10T06:44:36;18.00;99.90
66608;DHT22;53462;39.616;8.824;2023-05-10T06:47:02;18.00;99.90
66608;DHT22;53462;39.616;8.824;2023-05-10T06:49:28;18.80;99.90
66608;DHT22;53462;39.616;8.824;2023-05-10T06:51:55;20.20;99.90
66608;DHT22;53462;39.616;8.824;2023-05-10T06:54:21;19.50;99.90
66608;DHT22;53462;39.616;8.824;2023-05-10T06:56:48;19.30;99.90
66608;DHT22;53462;39.616;8.824;2023-05-10T06:59:14;19.80;99.90
66608;DHT22;53462;39.616;8.824;2023-05-10T07:01:42;20.10;99.90
66608;DHT22;53462;39.616;8.824;2023-05-10T07:04:08;20.10;99.90
66608;DHT22;53462;39.616;8.824;2023-05-10T07:06:34;19.80;99.90
66608;DHT22;53462;39.616;8.824;2023-05-10T07:09:00;19.40;99.90
66608;DHT22;53462;39.616;8.824;2023-05-10T07:11:26;19.30;99.90
66608;DHT22;53462;39.616;8.824;2023-05-10T07:13:52;19.00;99.90
66608;DHT22;53462;39.616;8.824;2023-05-10T07:16:18;18.60;99.90
66608;DHT22;53462;39.616;8.824;2023-05-10T07:18:44;18.80;99.90
66608;DHT22;53462;39.616;8.824;2023-05-10T07:21:10;18.80;99.90
66608;DHT22;53462;39.616;8.824;2023-05-10T07:23:36;19.70;99.90
66608;DHT22;53462;39.616;8.824;2023-05-10T07:26:02;20.50;99.90
66608;DHT22;53462;39.616;8.824;2023-05-10T07:28:28;21.00;99.90
66608;DHT22;53462;39.616;8.824;2023-05-10T07:30:54;20.90;99.90
66608;DHT22;53462;39.616;8.824;2023-05-10T07:33:19;21.20;99.90
66608;DHT22;53462;39.616;8.824;2023-05-10T07:35:45;21.20;99.80
66608;DHT22;53462;39.616;8.824;2023-05-10T07:38:11;20.90;98.00
66608;DHT22;53462;39.616;8.824;2023-05-10T07:40:38;20.60;99.90
66608;DHT22;53462;39.616;8.824;2023-05-10T07:43:04;20.60;99.90
66608;DHT22;53462;39.616;8.824;2023-05-10T07:45:30;20.30;99.90
66608;DHT22;53462;39.616;8.824;2023-05-10T07:47:56;20.00;99.90
66608;DHT22;53462;39.616;8.824;2023-05-10T07:50:22;19.60;99.90
66608;DHT22;53462;39.616;8.824;2023-05-10T07:52:48;20.30;99.90
66608;DHT22;53462;39.616;8.824;2023-05-10T07:55:14;20.60;99.90
66608;DHT22;53462;39.616;8.824;2023-05-10T07:57:40;20.50;99.90
66608;DHT22;53462;39.616;8.824;2023-05-10T08:00:07;21.20;99.90
66608;DHT22;53462;39.616;8.824;2023-05-10T08:02:38;21.00;98.10
66608;DHT22;53462;39.616;8.824;2023-05-10T08:05:05;20.90;97.40
66608;DHT22;53462;39.616;8.824;2023-05-10T08:07:31;21.50;94.50
66608;DHT22;53462;39.616;8.824;2023-05-10T08:09:57;22.00;92.50
66608;DHT22;53462;39.616;8.824;2023-05-10T08:12:23;22.00;90.90
66608;DHT22;53462;39.616;8.824;2023-05-10T08:14:49;22.40;89.20
66608;DHT22;53462;39.616;8.824;2023-05-10T08:17:15;21.90;88.70
66608;DHT22;53462;39.616;8.824;2023-05-10T08:19:41;22.30;87.70
66608;DHT22;53462;39.616;8.824;2023-05-10T08:22:07;22.70;87.40
66608;DHT22;53462;39.616;8.824;2023-05-10T08:24:33;23.10;85.70
66608;DHT22;53462;39.616;8.824;2023-05-10T08:27:06;22.80;86.30
66608;DHT22;53462;39.616;8.824;2023-05-10T08:29:32;22.10;89.70
66608;DHT22;53462;39.616;8.824;2023-05-10T08:31:58;21.50;91.50
66608;DHT22;53462;39.616;8.824;2023-05-10T08:34:24;21.90;89.70
66608;DHT22;53462;39.616;8.824;2023-05-10T08:36:50;22.90;87.70
66608;DHT22;53462;39.616;8.824;2023-05-10T08:39:16;23.70;84.30
66608;DHT22;53462;39.616;8.824;2023-05-10T08:41:44;23.20;82.80
66608;DHT22;53462;39.616;8.824;2023-05-10T08:44:10;22.40;85.50
66608;DHT22;53462;39.616;8.824;2023-05-10T08:46:37;22.40;87.80
66608;DHT22;53462;39.616;8.824;2023-05-10T08:49:07;22.90;84.70
66608;DHT22;53462;39.616;8.824;2023-05-10T08:51:36;22.70;85.70
66608;DHT22;53462;39.616;8.824;2023-05-10T08:54:04;22.80;84.70
66608;DHT22;53462;39.616;8.824;2023-05-10T08:56:31;22.60;85.10
66608;DHT22;53462;39.616;8.824;2023-05-10T08:58:57;22.50;84.80
66608;DHT22;53462;39.616;8.824;2023-05-10T09:01:24;22.90;83.70
66608;DHT22;53462;39.616;8.824;2023-05-10T09:03:51;22.50;85.40
66608;DHT22;53462;39.616;8.824;2023-05-10T09:06:17;22.60;83.40
66608;DHT22;53462;39.616;8.824;2023-05-10T09:08:43;22.60;84.60
66608;DHT22;53462;39.616;8.824;2023-05-10T09:11:11;22.30;83.30
66608;DHT22;53462;39.616;8.824;2023-05-10T09:13:37;23.10;82.90
66608;DHT22;53462;39.616;8.824;2023-05-10T09:16:03;22.80;80.70
66608;DHT22;53462;39.616;8.824;2023-05-10T09:18:30;23.00;82.30
66608;DHT22;53462;39.616;8.824;2023-05-10T09:20:56;23.50;79.00
66608;DHT22;53462;39.616;8.824;2023-05-10T09:23:22;23.70;75.60
66608;DHT22;53462;39.616;8.824;2023-05-10T09:26:05;24.00;76.30
66608;DHT22;53462;39.616;8.824;2023-05-10T09:28:34;24.10;73.20
66608;DHT22;53462;39.616;8.824;2023-05-10T09:31:15;23.10;74.90
66608;DHT22;53462;39.616;8.824;2023-05-10T09:33:48;23.50;76.00
66608;DHT22;53462;39.616;8.824;2023-05-10T09:36:15;23.60;74.40
66608;DHT22;53462;39.616;8.824;2023-05-10T09:38:48;23.40;75.10
66608;DHT22;53462;39.616;8.824;2023-05-10T09:41:15;23.10;75.00
66608;DHT22;53462;39.616;8.824;2023-05-10T09:43:41;22.70;75.60
66608;DHT22;53462;39.616;8.824;2023-05-10T09:46:09;23.50;75.70
66608;DHT22;53462;39.616;8.824;2023-05-10T09:48:42;24.30;72.70
66608;DHT22;53462;39.616;8.824;2023-05-10T09:51:08;24.40;68.80
66608;DHT22;53462;39.616;8.824;2023-05-10T09:53:34;24.90;67.50
66608;DHT22;53462;39.616;8.824;2023-05-10T09:56:00;25.20;65.70
66608;DHT22;53462;39.616;8.824;2023-05-10T09:58:26;24.80;61.50
66608;DHT22;53462;39.616;8.824;2023-05-10T10:00:53;24.40;63.70
66608;DHT22;53462;39.616;8.824;2023-05-10T10:03:21;24.80;61.60
66608;DHT22;53462;39.616;8.824;2023-05-10T10:05:47;24.90;63.00
66608;DHT22;53462;39.616;8.824;2023-05-10T10:08:14;24.20;63.40
66608;DHT22;53462;39.616;8.824;2023-05-10T10:10:41;24.40;62.00
66608;DHT22;53462;39.616;8.824;2023-05-10T10:13:07;24.80;61.00
66608;DHT22;53462;39.616;8.824;2023-05-10T10:15:34;25.20;59.10
66608;DHT22;53462;39.616;8.824;2023-05-10T10:18:00;25.30;56.70
66608;DHT22;53462;39.616;8.824;2023-05-10T10:20:27;25.10;56.00
66608;DHT22;53462;39.616;8.824;2023-05-10T10:22:53;25.10;55.70
66608;DHT22;53462;39.616;8.824;2023-05-10T10:25:20;25.30;54.70
66608;DHT22;53462;39.616;8.824;2023-05-10T10:30:47;25.50;53.80
66608;DHT22;53462;39.616;8.824;2023-05-10T10:36:04;25.50;52.40
66608;DHT22;53462;39.616;8.824;2023-05-10T10:41:38;25.00;52.60
66608;DHT22;53462;39.616;8.824;2023-05-10T10:44:25;25.30;54.70
66608;DHT22;53462;39.616;8.824;2023-05-10T10:49:51;25.30;54.60
66608;DHT22;53462;39.616;8.824;2023-05-10T10:52:27;25.40;54.40
66608;DHT22;53462;39.616;8.824;2023-05-10T10:55:00;24.90;56.30
66608;DHT22;53462;39.616;8.824;2023-05-10T10:57:27;25.30;55.60
66608;DHT22;53462;39.616;8.824;2023-05-10T11:02:46;24.90;56.10
66608;DHT22;53462;39.616;8.824;2023-05-10T11:05:38;25.30;56.10
66608;DHT22;53462;39.616;8.824;2023-05-10T11:10:38;25.20;55.90
66608;DHT22;53462;39.616;8.824;2023-05-10T11:13:09;25.30;56.20
66608;DHT22;53462;39.616;8.824;2023-05-10T11:15:39;25.60;55.70
66608;DHT22;53462;39.616;8.824;2023-05-10T11:18:28;25.20;56.30
66608;DHT22;53462;39.616;8.824;2023-05-10T11:20:59;24.50;57.70
66608;DHT22;53462;39.616;8.824;2023-05-10T11:23:33;24.60;56.40
66608;DHT22;53462;39.616;8.824;2023-05-10T11:26:13;24.00;58.10
66608;DHT22;53462;39.616;8.824;2023-05-10T11:28:48;24.30;58.10
66608;DHT22;53462;39.616;8.824;2023-05-10T11:31:16;24.40;56.30
66608;DHT22;53462;39.616;8.824;2023-05-10T11:33:58;24.20;57.60
66608;DHT22;53462;39.616;8.824;2023-05-10T11:36:27;24.80;56.40
66608;DHT22;53462;39.616;8.824;2023-05-10T11:38:54;25.00;56.80
66608;DHT22;53462;39.616;8.824;2023-05-10T11:41:21;25.50;54.80
66608;DHT22;53462;39.616;8.824;2023-05-10T11:43:50;25.40;53.60
66608;DHT22;53462;39.616;8.824;2023-05-10T11:46:22;25.60;54.70
66608;DHT22;53462;39.616;8.824;2023-05-10T11:49:01;25.20;53.80
66608;DHT22;53462;39.616;8.824;2023-05-10T11:51:32;25.30;54.00
66608;DHT22;53462;39.616;8.824;2023-05-10T11:53:58;25.00;53.80
66608;DHT22;53462;39.616;8.824;2023-05-10T11:56:24;24.60;55.60
66608;DHT22;53462;39.616;8.824;2023-05-10T11:58:54;24.80;54.20
66608;DHT22;53462;39.616;8.824;2023-05-10T12:01:21;25.00;54.40
66608;DHT22;53462;39.616;8.824;2023-05-10T12:03:51;25.00;54.10
66608;DHT22;53462;39.616;8.824;2023-05-10T12:06:19;24.90;53.90
66608;DHT22;53462;39.616;8.824;2023-05-10T12:08:47;24.90;54.40
66608;DHT22;53462;39.616;8.824;2023-05-10T12:11:13;24.70;53.90
66608;DHT22;53462;39.616;8.824;2023-05-10T12:13:42;23.90;55.70
66608;DHT22;53462;39.616;8.824;2023-05-10T12:16:29;23.50;57.00
66608;DHT22;53462;39.616;8.824;2023-05-10T12:18:59;24.50;55.70
66608;DHT22;53462;39.616;8.824;2023-05-10T12:21:28;24.90;55.00
66608;DHT22;53462;39.616;8.824;2023-05-10T12:23:59;24.40;54.20
66608;DHT22;53462;39.616;8.824;2023-05-10T12:26:26;24.40;54.70
66608;DHT22;53462;39.616;8.824;2023-05-10T12:28:54;24.30;56.00
66608;DHT22;53462;39.616;8.824;2023-05-10T12:31:20;24.50;55.00
66608;DHT22;53462;39.616;8.824;2023-05-10T12:33:47;24.50;54.70
66608;DHT22;53462;39.616;8.824;2023-05-10T12:36:16;24.20;55.10
66608;DHT22;53462;39.616;8.824;2023-05-10T12:38:44;24.70;53.60
66608;DHT22;53462;39.616;8.824;2023-05-10T12:41:15;24.80;53.00
66608;DHT22;53462;39.616;8.824;2023-05-10T12:43:42;24.70;53.80
66608;DHT22;53462;39.616;8.824;2023-05-10T12:46:09;24.20;55.40
66608;DHT22;53462;39.616;8.824;2023-05-10T12:48:36;24.00;55.60
66608;DHT22;53462;39.616;8.824;2023-05-10T12:51:03;23.90;56.10
66608;DHT22;53462;39.616;8.824;2023-05-10T12:53:29;23.60;55.10
66608;DHT22;53462;39.616;8.824;2023-05-10T12:55:56;23.30;56.20
66608;DHT22;53462;39.616;8.824;2023-05-10T12:58:22;23.70;56.50
66608;DHT22;53462;39.616;8.824;2023-05-10T13:00:47;24.00;55.80
66608;DHT22;53462;39.616;8.824;2023-05-10T13:03:13;24.30;54.30
66608;DHT22;53462;39.616;8.824;2023-05-10T13:05:41;24.40;53.60
66608;DHT22;53462;39.616;8.824;2023-05-10T13:08:07;24.30;53.00
66608;DHT22;53462;39.616;8.824;2023-05-10T13:10:33;24.20;53.10
66608;DHT22;53462;39.616;8.824;2023-05-10T13:12:59;24.10;53.20
66608;DHT22;53462;39.616;8.824;2023-05-10T13:15:25;24.00;54.10
66608;DHT22;53462;39.616;8.824;2023-05-10T13:17:52;24.20;54.10
66608;DHT22;53462;39.616;8.824;2023-05-10T13:20:18;23.90;53.30
66608;DHT22;53462;39.616;8.824;2023-05-10T13:22:44;23.70;53.30
66608;DHT22;53462;39.616;8.824;2023-05-10T13:25:11;23.60;53.40
66608;DHT22;53462;39.616;8.824;2023-05-10T13:27:40;23.20;53.70
66608;DHT22;53462;39.616;8.824;2023-05-10T13:30:07;23.30;54.60
66608;DHT22;53462;39.616;8.824;2023-05-10T13:32:34;23.60;54.50
66608;DHT22;53462;39.616;8.824;2023-05-10T13:35:00;23.90;54.20
66608;DHT22;53462;39.616;8.824;2023-05-10T13:37:26;23.60;53.80
66608;DHT22;53462;39.616;8.824;2023-05-10T13:39:52;23.50;53.30
66608;DHT22;53462;39.616;8.824;2023-05-10T13:42:18;23.30;55.10
66608;DHT22;53462;39.616;8.824;2023-05-10T13:44:44;23.40;53.80
66608;DHT22;53462;39.616;8.824;2023-05-10T13:47:10;23.30;54.50
66608;DHT22;53462;39.616;8.824;2023-05-10T13:49:36;22.60;54.80
66608;DHT22;53462;39.616;8.824;2023-05-10T13:52:03;22.60;56.20
66608;DHT22;53462;39.616;8.824;2023-05-10T13:54:38;22.90;54.10
66608;DHT22;53462;39.616;8.824;2023-05-10T13:57:05;22.80;55.20
66608;DHT22;53462;39.616;8.824;2023-05-10T13:59:32;23.00;54.50
66608;DHT22;53462;39.616;8.824;2023-05-10T14:01:58;22.80;54.60
66608;DHT22;53462;39.616;8.824;2023-05-10T14:04:25;22.70;54.60
66608;DHT22;53462;39.616;8.824;2023-05-10T14:06:51;22.50;54.60
66608;DHT22;53462;39.616;8.824;2023-05-10T14:09:18;22.70;54.30
66608;DHT22;53462;39.616;8.824;2023-05-10T14:11:45;22.30;55.10
66608;DHT22;53462;39.616;8.824;2023-05-10T14:14:11;22.00;54.60
66608;DHT22;53462;39.616;8.824;2023-05-10T14:16:41;21.90;56.10
66608;DHT22;53462;39.616;8.824;2023-05-10T14:19:07;22.00;56.10
66608;DHT22;53462;39.616;8.824;2023-05-10T14:21:33;22.10;55.00
66608;DHT22;53462;39.616;8.824;2023-05-10T14:23:59;22.10;55.40
66608;DHT22;53462;39.616;8.824;2023-05-10T14:26:25;21.70;56.20
66608;DHT22;53462;39.616;8.824;2023-05-10T14:28:51;21.60;56.30
66608;DHT22;53462;39.616;8.824;2023-05-10T14:31:17;21.60;56.30
66608;DHT22;53462;39.616;8.824;2023-05-10T14:33:46;21.50;57.40
66608;DHT22;53462;39.616;8.824;2023-05-10T14:36:13;21.60;58.00
66608;DHT22;53462;39.616;8.824;2023-05-10T14:38:39;21.80;57.70
66608;DHT22;53462;39.616;8.824;2023-05-10T14:41:05;21.60;56.20
66608;DHT22;53462;39.616;8.824;2023-05-10T14:43:31;21.70;57.60
66608;DHT22;53462;39.616;8.824;2023-05-10T14:45:58;21.80;57.40
66608;DHT22;53462;39.616;8.824;2023-05-10T14:48:23;21.60;56.70
66608;DHT22;53462;39.616;8.824;2023-05-10T14:50:49;21.70;57.00
66608;DHT22;53462;39.616;8.824;2023-05-10T14:53:16;21.60;57.80
66608;DHT22;53462;39.616;8.824;2023-05-10T14:55:42;21.20;58.40
66608;DHT22;53462;39.616;8.824;2023-05-10T14:58:08;20.90;57.10
66608;DHT22;53462;39.616;8.824;2023-05-10T15:00:34;20.70;56.50
66608;DHT22;53462;39.616;8.824;2023-05-10T15:02:59;21.10;57.60
66608;DHT22;53462;39.616;8.824;2023-05-10T15:05:25;21.20;56.90
66608;DHT22;53462;39.616;8.824;2023-05-10T15:07:51;21.20;57.20
66608;DHT22;53462;39.616;8.824;2023-05-10T15:10:18;21.20;56.90
66608;DHT22;53462;39.616;8.824;2023-05-10T15:12:43;21.10;56.00
66608;DHT22;53462;39.616;8.824;2023-05-10T15:15:10;21.10;57.20
66608;DHT22;53462;39.616;8.824;2023-05-10T15:17:36;21.10;57.50
66608;DHT22;53462;39.616;8.824;2023-05-10T15:20:02;21.10;58.10
66608;DHT22;53462;39.616;8.824;2023-05-10T15:22:29;21.40;57.90
66608;DHT22;53462;39.616;8.824;2023-05-10T15:25:00;21.10;57.70
66608;DHT22;53462;39.616;8.824;2023-05-10T15:27:27;20.90;57.80
66608;DHT22;53462;39.616;8.824;2023-05-10T15:29:53;20.90;59.40
66608;DHT22;53462;39.616;8.824;2023-05-10T15:32:19;20.90;58.60
66608;DHT22;53462;39.616;8.824;2023-05-10T15:34:45;20.60;58.70
66608;DHT22;53462;39.616;8.824;2023-05-10T15:37:10;20.50;60.50
66608;DHT22;53462;39.616;8.824;2023-05-10T15:39:36;20.60;60.40
66608;DHT22;53462;39.616;8.824;2023-05-10T15:42:02;20.30;59.90
66608;DHT22;53462;39.616;8.824;2023-05-10T15:44:29;20.30;59.80
66608;DHT22;53462;39.616;8.824;2023-05-10T15:46:55;20.10;59.70
66608;DHT22;53462;39.616;8.824;2023-05-10T15:49:21;20.10;60.80
66608;DHT22;53462;39.616;8.824;2023-05-10T15:51:47;20.00;60.30
66608;DHT22;53462;39.616;8.824;2023-05-10T15:54:13;20.10;60.40
66608;DHT22;53462;39.616;8.824;2023-05-10T15:56:39;20.20;59.90
66608;DHT22;53462;39.616;8.824;2023-05-10T15:59:05;20.00;60.70
66608;DHT22;53462;39.616;8.824;2023-05-10T16:01:33;20.00;61.40
66608;DHT22;53462;39.616;8.824;2023-05-10T16:03:59;19.90;60.90